sensor_id;sensor_type;location;lat;lon;timestamp;pressure;altitude;pressure_sealevel;temperature;humidity
47524;BME280;33253;42.144;25.884;2023-11-21T00:01:17;100371.44;;;5.96;100.00
47524;BME280;33253;42.144;25.884;2023-11-21T00:03:43;100374.78;;;5.95;100.00
47524;BME280;33253;42.144;25.884;2023-11-21T00:06:09;100357.06;;;5.98;100.00
47524;BME280;33253;42.144;25.884;2023-11-21T00:08:36;100355.09;;;5.94;100.00
47524;BME280;33253;42.144;25.884;2023-11-21T00:11:22;100371.50;;;5.98;100.00
47524;BME280;33253;42.144;25.884;2023-11-21T00:13:47;100372.22;;;5.95;100.00
47524;BME280;33253;42.144;25.884;2023-11-21T00:16:13;100369.44;;;5.91;100.00
47524;BME280;33253;42.144;25.884;2023-11-21T00:18:38;100370.84;;;5.86;100.00
47524;BME280;33253;42.144;25.884;2023-11-21T00:21:04;100258.91;;;5.20;100.00
47524;BME280;33253;42.144;25.884;2023-11-21T00:23:29;100368.25;;;5.69;100.00
47524;BME280;33253;42.144;25.884;2023-11-21T00:25:55;100379.50;;;5.56;100.00
47524;BME280;33253;42.144;25.884;2023-11-21T00:28:20;100385.34;;;5.54;100.00
47524;BME280;33253;42.144;25.884;2023-11-21T00:30:45;100382.06;;;5.56;100.00
47524;BME280;33253;42.144;25.884;2023-11-21T00:33:11;100398.47;;;5.60;100.00
47524;BME280;33253;42.144;25.884;2023-11-21T00:35:36;100384.09;;;5.47;100.00
47524;BME280;33253;42.144;25.884;2023-11-21T00:38:02;100384.38;;;5.37;100.00
47524;BME280;33253;42.144;25.884;2023-11-21T00:40:28;100392.25;;;5.40;100.00
47524;BME280;33253;42.144;25.884;2023-11-21T00:42:54;100403.38;;;5.40;100.00
47524;BME280;33253;42.144;25.884;2023-11-21T00:45:21;100403.09;;;5.35;100.00
47524;BME280;33253;42.144;25.884;2023-11-21T00:47:46;100403.81;;;5.33;100.00
47524;BME280;33253;42.144;25.884;2023-11-21T00:50:12;100389.34;;;5.18;100.00
47524;BME280;33253;42.144;25.884;2023-11-21T00:52:37;100399.31;;;5.29;100.00
47524;BME280;33253;42.144;25.884;2023-11-21T00:55:06;100398.44;;;5.28;100.00
47524;BME280;33253;42.144;25.884;2023-11-21T00:57:32;100394.28;;;5.30;100.00
47524;BME280;33253;42.144;25.884;2023-11-21T00:59:58;100394.81;;;5.25;100.00
47524;BME280;33253;42.144;25.884;2023-11-21T01:02:24;100392.78;;;5.19;100.00
47524;BME280;33253;42.144;25.884;2023-11-21T01:04:50;100389.34;;;5.04;100.00
47524;BME280;33253;42.144;25.884;2023-11-21T01:07:16;100378.56;;;4.94;100.00
47524;BME280;33253;42.144;25.884;2023-11-21T01:09:41;100395.97;;;5.15;100.00
47524;BME280;33253;42.144;25.884;2023-11-21T01:12:07;100391.00;;;5.18;100.00
47524;BME280;33253;42.144;25.884;2023-11-21T01:14:32;100381.03;;;5.23;100.00
47524;BME280;33253;42.144;25.884;2023-11-21T01:16:57;100375.16;;;5.09;100.00
47524;BME280;33253;42.144;25.884;2023-11-21T01:19:23;100390.94;;;5.16;100.00
47524;BME280;33253;42.144;25.884;2023-11-21T01:21:48;100382.75;;;5.22;100.00
47524;BME280;33253;42.144;25.884;2023-11-21T01:24:14;100377.78;;;5.10;100.00
47524;BME280;33253;42.144;25.884;2023-11-21T01:26:40;100372.03;;;4.99;100.00
47524;BME280;33253;42.144;25.884;2023-11-21T01:29:05;100369.47;;;4.99;100.00
47524;BME280;33253;42.144;25.884;2023-11-21T01:31:31;100370.38;;;5.00;100.00
47524;BME280;33253;42.144;25.884;2023-11-21T01:33:56;100374.88;;;5.04;100.00
47524;BME280;33253;42.144;25.884;2023-11-21T01:36:22;100370.91;;;4.94;100.00
47524;BME280;33253;42.144;25.884;2023-11-21T01:38:47;100206.56;;;3.94;100.00
47524;BME280;33253;42.144;25.884;2023-11-21T01:41:16;100266.00;;;4.34;100.00
47524;BME280;33253;42.144;25.884;2023-11-21T01:43:41;100375.22;;;4.95;100.00
47524;BME280;33253;42.144;25.884;2023-11-21T01:46:08;100372.59;;;4.94;100.00
47524;BME280;33253;42.144;25.884;2023-11-21T01:48:34;100348.56;;;4.77;100.00
47524;BME280;33253;42.144;25.884;2023-11-21T01:51:00;100368.69;;;4.85;100.00
47524;BME280;33253;42.144;25.884;2023-11-21T01:53:26;100376.44;;;4.87;100.00
47524;BME280;33253;42.144;25.884;2023-11-21T01:55:51;100335.34;;;4.69;100.00
47524;BME280;33253;42.144;25.884;2023-11-21T01:58:19;100373.28;;;4.91;100.00
47524;BME280;33253;42.144;25.884;2023-11-21T02:00:45;100376.72;;;4.92;100.00
47524;BME280;33253;42.144;25.884;2023-11-21T02:03:10;100377.94;;;4.98;100.00
47524;BME280;33253;42.144;25.884;2023-11-21T02:05:37;100299.47;;;4.52;100.00
47524;BME280;33253;42.144;25.884;2023-11-21T02:08:03;100375.94;;;4.93;100.00
47524;BME280;33253;42.144;25.884;2023-11-21T02:10:30;100385.63;;;4.98;100.00
47524;BME280;33253;42.144;25.884;2023-11-21T02:12:56;100379.72;;;4.99;100.00
47524;BME280;33253;42.144;25.884;2023-11-21T02:15:22;100372.16;;;5.01;100.00
47524;BME280;33253;42.144;25.884;2023-11-21T02:17:49;100370.28;;;4.98;100.00
47524;BME280;33253;42.144;25.884;2023-11-21T02:20:22;100307.13;;;4.52;100.00
47524;BME280;33253;42.144;25.884;2023-11-21T02:22:53;100365.16;;;4.83;100.00
47524;BME280;33253;42.144;25.884;2023-11-21T02:25:29;100366.91;;;4.84;100.00
47524;BME280;33253;42.144;25.884;2023-11-21T02:27:56;100368.59;;;4.84;100.00
47524;BME280;33253;42.144;25.884;2023-11-21T02:30:22;100355.81;;;4.84;100.00
47524;BME280;33253;42.144;25.884;2023-11-21T02:32:50;100264.94;;;4.31;100.00
47524;BME280;33253;42.144;25.884;2023-11-21T02:35:18;100346.91;;;4.62;100.00
47524;BME280;33253;42.144;25.884;2023-11-21T02:37:46;100350.59;;;4.67;100.00
47524;BME280;33253;42.144;25.884;2023-11-21T02:40:12;100345.28;;;4.64;100.00
47524;BME280;33253;42.144;25.884;2023-11-21T02:42:39;100355.88;;;4.70;100.00
47524;BME280;33253;42.144;25.884;2023-11-21T02:45:06;100361.78;;;4.69;100.00
47524;BME280;33253;42.144;25.884;2023-11-21T02:47:32;100368.66;;;4.70;100.00
47524;BME280;33253;42.144;25.884;2023-11-21T02:49:57;100360.47;;;4.61;100.00
47524;BME280;33253;42.144;25.884;2023-11-21T02:52:23;100356.56;;;4.53;100.00
47524;BME280;33253;42.144;25.884;2023-11-21T02:54:49;100255.44;;;3.85;100.00
47524;BME280;33253;42.144;25.884;2023-11-21T02:57:14;100343.59;;;4.35;100.00
47524;BME280;33253;42.144;25.884;2023-11-21T02:59:40;100322.75;;;4.14;100.00
47524;BME280;33253;42.144;25.884;2023-11-21T03:02:05;100344.34;;;4.19;100.00
47524;BME280;33253;42.144;25.884;2023-11-21T03:04:34;100249.72;;;3.61;100.00
47524;BME280;33253;42.144;25.884;2023-11-21T03:07:00;100335.94;;;4.07;100.00
47524;BME280;33253;42.144;25.884;2023-11-21T03:09:26;100349.66;;;4.09;100.00
47524;BME280;33253;42.144;25.884;2023-11-21T03:11:53;100362.88;;;4.01;100.00
47524;BME280;33253;42.144;25.884;2023-11-21T03:14:18;100356.78;;;3.99;100.00
47524;BME280;33253;42.144;25.884;2023-11-21T03:16:44;100360.19;;;4.00;100.00
47524;BME280;33253;42.144;25.884;2023-11-21T03:19:11;100357.56;;;3.98;100.00
47524;BME280;33253;42.144;25.884;2023-11-21T03:21:36;100369.72;;;4.02;100.00
47524;BME280;33253;42.144;25.884;2023-11-21T03:24:02;100367.44;;;4.07;100.00
47524;BME280;33253;42.144;25.884;2023-11-21T03:26:28;100363.81;;;4.03;100.00
47524;BME280;33253;42.144;25.884;2023-11-21T03:28:54;100368.81;;;4.15;100.00
47524;BME280;33253;42.144;25.884;2023-11-21T03:31:20;100370.00;;;4.07;100.00
47524;BME280;33253;42.144;25.884;2023-11-21T03:33:46;100374.66;;;3.99;100.00
47524;BME280;33253;42.144;25.884;2023-11-21T03:36:12;100367.53;;;3.80;100.00
47524;BME280;33253;42.144;25.884;2023-11-21T03:38:40;100361.66;;;3.54;100.00
47524;BME280;33253;42.144;25.884;2023-11-21T03:41:06;100382.66;;;3.64;100.00
47524;BME280;33253;42.144;25.884;2023-11-21T03:43:32;100351.84;;;3.61;100.00
47524;BME280;33253;42.144;25.884;2023-11-21T03:45:57;100360.75;;;3.67;100.00
47524;BME280;33253;42.144;25.884;2023-11-21T03:48:23;100371.47;;;3.62;100.00
47524;BME280;33253;42.144;25.884;2023-11-21T03:50:48;100274.53;;;2.95;100.00
47524;BME280;33253;42.144;25.884;2023-11-21T03:53:14;100384.41;;;3.51;100.00
47524;BME280;33253;42.144;25.884;2023-11-21T03:55:39;100303.75;;;3.00;100.00
47524;BME280;33253;42.144;25.884;2023-11-21T03:58:05;100357.84;;;3.34;100.00
47524;BME280;33253;42.144;25.884;2023-11-21T04:00:31;100331.63;;;3.23;100.00
47524;BME280;33253;42.144;25.884;2023-11-21T04:02:56;100358.53;;;3.45;100.00
47524;BME280;33253;42.144;25.884;2023-11-21T04:05:22;100288.69;;;3.03;100.00
47524;BME280;33253;42.144;25.884;2023-11-21T04:07:49;100324.88;;;3.11;100.00
47524;BME280;33253;42.144;25.884;2023-11-21T04:10:15;100390.50;;;3.40;100.00
47524;BME280;33253;42.144;25.884;2023-11-21T04:12:41;100381.00;;;3.37;100.00
47524;BME280;33253;42.144;25.884;2023-11-21T04:15:07;100386.38;;;3.29;100.00
47524;BME280;33253;42.144;25.884;2023-11-21T04:17:34;100279.41;;;2.65;100.00
47524;BME280;33253;42.144;25.884;2023-11-21T04:20:00;100386.34;;;2.88;100.00
47524;BME280;33253;42.144;25.884;2023-11-21T04:22:26;100389.34;;;2.83;100.00
47524;BME280;33253;42.144;25.884;2023-11-21T04:24:51;100388.97;;;2.90;100.00
47524;BME280;33253;42.144;25.884;2023-11-21T04:27:17;100391.75;;;2.93;100.00
47524;BME280;33253;42.144;25.884;2023-11-21T04:29:45;100392.47;;;2.79;100.00
47524;BME280;33253;42.144;25.884;2023-11-21T04:32:11;100290.28;;;2.23;100.00
47524;BME280;33253;42.144;25.884;2023-11-21T04:34:38;100383.84;;;2.77;100.00
47524;BME280;33253;42.144;25.884;2023-11-21T04:37:03;100379.22;;;2.71;100.00
47524;BME280;33253;42.144;25.884;2023-11-21T04:39:32;100383.34;;;2.69;100.00
47524;BME280;33253;42.144;25.884;2023-11-21T04:41:58;100394.97;;;2.65;100.00
47524;BME280;33253;42.144;25.884;2023-11-21T04:44:23;100363.81;;;2.31;100.00
47524;BME280;33253;42.144;25.884;2023-11-21T04:46:49;100378.53;;;2.23;100.00
47524;BME280;33253;42.144;25.884;2023-11-21T04:49:15;100407.13;;;2.31;100.00
47524;BME280;33253;42.144;25.884;2023-11-21T04:51:41;100404.00;;;2.23;100.00
47524;BME280;33253;42.144;25.884;2023-11-21T04:54:06;100401.63;;;2.13;100.00
47524;BME280;33253;42.144;25.884;2023-11-21T04:56:32;100397.88;;;2.07;100.00
47524;BME280;33253;42.144;25.884;2023-11-21T04:58:57;100397.88;;;2.07;100.00
47524;BME280;33253;42.144;25.884;2023-11-21T05:01:23;100405.47;;;2.19;100.00
47524;BME280;33253;42.144;25.884;2023-11-21T05:03:48;100408.56;;;2.27;100.00
47524;BME280;33253;42.144;25.884;2023-11-21T05:06:14;100421.56;;;2.43;100.00
47524;BME280;33253;42.144;25.884;2023-11-21T05:08:40;100431.34;;;2.37;100.00
47524;BME280;33253;42.144;25.884;2023-11-21T05:11:06;100426.59;;;2.30;100.00
47524;BME280;33253;42.144;25.884;2023-11-21T05:13:34;100431.91;;;2.33;100.00
47524;BME280;33253;42.144;25.884;2023-11-21T05:15:59;100422.09;;;2.14;100.00
47524;BME280;33253;42.144;25.884;2023-11-21T05:18:25;100433.94;;;2.14;100.00
47524;BME280;33253;42.144;25.884;2023-11-21T05:20:55;100429.44;;;2.09;100.00
47524;BME280;33253;42.144;25.884;2023-11-21T05:23:21;100403.53;;;1.91;100.00
47524;BME280;33253;42.144;25.884;2023-11-21T05:25:46;100325.06;;;1.49;100.00
47524;BME280;33253;42.144;25.884;2023-11-21T05:28:13;100427.75;;;2.10;100.00
47524;BME280;33253;42.144;25.884;2023-11-21T05:30:38;100434.28;;;2.18;100.00
47524;BME280;33253;42.144;25.884;2023-11-21T05:33:05;100445.16;;;2.16;100.00
47524;BME280;33253;42.144;25.884;2023-11-21T05:35:30;100366.16;;;1.67;100.00
47524;BME280;33253;42.144;25.884;2023-11-21T05:37:56;100454.31;;;2.14;100.00
47524;BME280;33253;42.144;25.884;2023-11-21T05:40:22;100445.34;;;2.19;100.00
47524;BME280;33253;42.144;25.884;2023-11-21T05:42:47;100445.88;;;2.26;100.00
47524;BME280;33253;42.144;25.884;2023-11-21T05:45:13;100441.63;;;2.39;100.00
47524;BME280;33253;42.144;25.884;2023-11-21T05:47:42;100445.06;;;2.39;100.00
47524;BME280;33253;42.144;25.884;2023-11-21T05:50:09;100447.91;;;2.44;100.00
47524;BME280;33253;42.144;25.884;2023-11-21T05:52:40;100428.53;;;2.46;100.00
47524;BME280;33253;42.144;25.884;2023-11-21T05:55:06;100438.56;;;2.56;100.00
47524;BME280;33253;42.144;25.884;2023-11-21T05:57:33;100446.63;;;2.63;100.00
47524;BME280;33253;42.144;25.884;2023-11-21T06:00:05;100449.94;;;2.73;100.00
47524;BME280;33253;42.144;25.884;2023-11-21T06:02:43;100448.56;;;2.79;100.00
47524;BME280;33253;42.144;25.884;2023-11-21T06:05:09;100338.75;;;2.37;100.00
47524;BME280;33253;42.144;25.884;2023-11-21T06:07:35;100359.44;;;2.67;100.00
47524;BME280;33253;42.144;25.884;2023-11-21T06:10:03;100451.75;;;3.40;100.00
47524;BME280;33253;42.144;25.884;2023-11-21T06:12:31;100448.34;;;3.53;100.00
47524;BME280;33253;42.144;25.884;2023-11-21T06:15:01;100422.03;;;3.40;100.00
47524;BME280;33253;42.144;25.884;2023-11-21T06:17:29;100443.06;;;3.63;100.00
47524;BME280;33253;42.144;25.884;2023-11-21T06:19:54;100440.41;;;3.75;100.00
47524;BME280;33253;42.144;25.884;2023-11-21T06:22:20;100459.25;;;3.91;100.00
47524;BME280;33253;42.144;25.884;2023-11-21T06:24:46;100365.59;;;3.36;100.00
47524;BME280;33253;42.144;25.884;2023-11-21T06:27:11;100453.84;;;3.99;100.00
47524;BME280;33253;42.144;25.884;2023-11-21T06:29:37;100442.44;;;4.08;100.00
47524;BME280;33253;42.144;25.884;2023-11-21T06:32:02;100452.44;;;4.18;100.00
47524;BME280;33253;42.144;25.884;2023-11-21T06:34:30;100465.19;;;4.31;100.00
47524;BME280;33253;42.144;25.884;2023-11-21T06:36:57;100431.69;;;4.27;100.00
47524;BME280;33253;42.144;25.884;2023-11-21T06:39:22;100444.69;;;4.45;100.00
47524;BME280;33253;42.144;25.884;2023-11-21T06:41:52;100437.41;;;4.51;100.00
47524;BME280;33253;42.144;25.884;2023-11-21T06:44:19;100436.69;;;4.53;100.00
47524;BME280;33253;42.144;25.884;2023-11-21T06:46:45;100450.66;;;4.59;100.00
47524;BME280;33253;42.144;25.884;2023-11-21T06:49:11;100456.03;;;4.63;100.00
47524;BME280;33253;42.144;25.884;2023-11-21T06:51:37;100456.66;;;4.59;100.00
47524;BME280;33253;42.144;25.884;2023-11-21T06:54:02;100385.81;;;4.15;100.00
47524;BME280;33253;42.144;25.884;2023-11-21T06:56:28;100465.03;;;4.57;100.00
47524;BME280;33253;42.144;25.884;2023-11-21T06:58:53;100462.66;;;4.31;100.00
47524;BME280;33253;42.144;25.884;2023-11-21T07:01:19;100457.84;;;4.23;100.00
47524;BME280;33253;42.144;25.884;2023-11-21T07:03:44;100459.88;;;4.28;100.00
47524;BME280;33253;42.144;25.884;2023-11-21T07:06:10;100448.34;;;4.07;100.00
47524;BME280;33253;42.144;25.884;2023-11-21T07:08:36;100445.94;;;4.23;100.00
47524;BME280;33253;42.144;25.884;2023-11-21T07:11:02;100440.72;;;4.35;100.00
47524;BME280;33253;42.144;25.884;2023-11-21T07:13:28;100454.97;;;4.60;100.00
47524;BME280;33253;42.144;25.884;2023-11-21T07:15:54;100450.59;;;4.72;100.00
47524;BME280;33253;42.144;25.884;2023-11-21T07:18:19;100451.00;;;4.93;100.00
47524;BME280;33253;42.144;25.884;2023-11-21T07:20:45;100374.84;;;4.74;100.00
47524;BME280;33253;42.144;25.884;2023-11-21T07:23:10;100442.03;;;5.30;100.00
47524;BME280;33253;42.144;25.884;2023-11-21T07:25:36;100442.19;;;5.48;100.00
47524;BME280;33253;42.144;25.884;2023-11-21T07:28:01;100419.94;;;5.47;100.00
47524;BME280;33253;42.144;25.884;2023-11-21T07:30:27;100433.19;;;5.70;100.00
47524;BME280;33253;42.144;25.884;2023-11-21T07:32:53;100430.13;;;5.77;100.00
47524;BME280;33253;42.144;25.884;2023-11-21T07:35:18;100435.19;;;5.75;100.00
47524;BME280;33253;42.144;25.884;2023-11-21T07:37:44;100432.44;;;5.87;100.00
47524;BME280;33253;42.144;25.884;2023-11-21T07:40:09;100427.66;;;5.93;100.00
47524;BME280;33253;42.144;25.884;2023-11-21T07:42:37;100403.63;;;5.91;100.00
47524;BME280;33253;42.144;25.884;2023-11-21T07:45:03;100426.78;;;6.24;100.00
47524;BME280;33253;42.144;25.884;2023-11-21T07:47:28;100435.69;;;6.31;100.00
47524;BME280;33253;42.144;25.884;2023-11-21T07:49:54;100420.78;;;6.40;100.00
47524;BME280;33253;42.144;25.884;2023-11-21T07:52:21;100311.13;;;5.87;100.00
47524;BME280;33253;42.144;25.884;2023-11-21T07:54:47;100429.53;;;6.77;100.00
47524;BME280;33253;42.144;25.884;2023-11-21T07:57:12;100435.19;;;6.88;100.00
47524;BME280;33253;42.144;25.884;2023-11-21T07:59:41;100430.59;;;6.99;100.00
47524;BME280;33253;42.144;25.884;2023-11-21T08:02:07;100436.22;;;7.08;100.00
47524;BME280;33253;42.144;25.884;2023-11-21T08:04:33;100433.31;;;7.18;100.00
47524;BME280;33253;42.144;25.884;2023-11-21T08:06:59;100422.97;;;7.17;100.00
47524;BME280;33253;42.144;25.884;2023-11-21T08:09:24;100438.47;;;7.36;100.00
47524;BME280;33253;42.144;25.884;2023-11-21T08:11:50;100347.31;;;6.92;100.00
47524;BME280;33253;42.144;25.884;2023-11-21T08:14:17;100434.09;;;7.52;100.00
47524;BME280;33253;42.144;25.884;2023-11-21T08:16:42;100446.19;;;7.54;100.00
47524;BME280;33253;42.144;25.884;2023-11-21T08:19:08;100434.44;;;7.59;100.00
47524;BME280;33253;42.144;25.884;2023-11-21T08:21:34;100434.19;;;7.71;100.00
47524;BME280;33253;42.144;25.884;2023-11-21T08:24:03;100427.63;;;7.78;100.00
47524;BME280;33253;42.144;25.884;2023-11-21T08:26:29;100324.28;;;7.29;100.00
47524;BME280;33253;42.144;25.884;2023-11-21T08:28:55;100413.34;;;8.03;100.00
47524;BME280;33253;42.144;25.884;2023-11-21T08:31:28;100425.97;;;8.16;100.00
47524;BME280;33253;42.144;25.884;2023-11-21T08:33:54;100417.88;;;8.26;100.00
47524;BME280;33253;42.144;25.884;2023-11-21T08:36:21;100424.44;;;8.39;100.00
47524;BME280;33253;42.144;25.884;2023-11-21T08:38:48;100412.66;;;8.45;100.00
47524;BME280;33253;42.144;25.884;2023-11-21T08:41:14;100419.28;;;8.57;100.00
47524;BME280;33253;42.144;25.884;2023-11-21T08:43:40;100406.84;;;8.68;100.00
47524;BME280;33253;42.144;25.884;2023-11-21T08:46:06;100418.63;;;8.83;100.00
47524;BME280;33253;42.144;25.884;2023-11-21T08:48:35;100402.00;;;8.96;100.00
47524;BME280;33253;42.144;25.884;2023-11-21T08:51:01;100317.41;;;8.63;100.00
47524;BME280;33253;42.144;25.884;2023-11-21T08:53:26;100391.63;;;9.14;100.00
47524;BME280;33253;42.144;25.884;2023-11-21T08:55:52;100372.44;;;9.07;100.00
47524;BME280;33253;42.144;25.884;2023-11-21T08:58:19;100386.16;;;9.27;100.00
47524;BME280;33253;42.144;25.884;2023-11-21T09:00:44;100390.97;;;9.41;100.00
47524;BME280;33253;42.144;25.884;2023-11-21T09:03:12;100376.13;;;9.56;99.83
47524;BME280;33253;42.144;25.884;2023-11-21T09:05:38;100380.19;;;9.72;98.31
47524;BME280;33253;42.144;25.884;2023-11-21T09:08:04;100372.09;;;9.85;99.14
47524;BME280;33253;42.144;25.884;2023-11-21T09:10:30;100360.47;;;9.97;97.26
47524;BME280;33253;42.144;25.884;2023-11-21T09:12:55;100356.19;;;9.96;97.31
47524;BME280;33253;42.144;25.884;2023-11-21T09:15:22;100356.41;;;10.02;96.43
47524;BME280;33253;42.144;25.884;2023-11-21T09:17:47;100286.69;;;9.76;97.03
47524;BME280;33253;42.144;25.884;2023-11-21T09:20:13;100349.22;;;10.17;97.09
47524;BME280;33253;42.144;25.884;2023-11-21T09:22:41;100354.44;;;10.19;96.27
47524;BME280;33253;42.144;25.884;2023-11-21T09:25:07;100348.63;;;10.25;96.78
47524;BME280;33253;42.144;25.884;2023-11-21T09:27:34;100336.75;;;10.30;95.11
47524;BME280;33253;42.144;25.884;2023-11-21T09:30:01;100337.66;;;10.55;94.88
47524;BME280;33253;42.144;25.884;2023-11-21T09:32:26;100326.94;;;10.68;94.53
47524;BME280;33253;42.144;25.884;2023-11-21T09:34:52;100321.25;;;10.78;95.11
47524;BME280;33253;42.144;25.884;2023-11-21T09:37:20;100250.22;;;10.38;94.30
47524;BME280;33253;42.144;25.884;2023-11-21T09:39:46;100326.16;;;10.96;95.24
47524;BME280;33253;42.144;25.884;2023-11-21T09:42:23;100310.06;;;11.05;93.96
47524;BME280;33253;42.144;25.884;2023-11-21T09:44:54;100316.75;;;11.26;93.09
47524;BME280;33253;42.144;25.884;2023-11-21T09:47:24;100309.44;;;11.40;92.24
47524;BME280;33253;42.144;25.884;2023-11-21T09:49:49;100291.44;;;11.43;90.92
47524;BME280;33253;42.144;25.884;2023-11-21T09:52:22;100298.38;;;11.73;90.27
47524;BME280;33253;42.144;25.884;2023-11-21T09:54:51;100218.09;;;11.39;88.81
47524;BME280;33253;42.144;25.884;2023-11-21T09:57:20;100284.31;;;11.95;88.52
47524;BME280;33253;42.144;25.884;2023-11-21T09:59:51;100280.50;;;12.11;89.19
47524;BME280;33253;42.144;25.884;2023-11-21T10:02:16;100283.22;;;12.16;89.01
47524;BME280;33253;42.144;25.884;2023-11-21T10:04:44;100277.88;;;12.09;87.80
47524;BME280;33253;42.144;25.884;2023-11-21T10:07:11;100274.34;;;12.07;88.71
47524;BME280;33253;42.144;25.884;2023-11-21T10:09:38;100256.16;;;12.04;89.01
47524;BME280;33253;42.144;25.884;2023-11-21T10:12:05;100235.91;;;11.89;89.41
47524;BME280;33253;42.144;25.884;2023-11-21T10:14:36;100243.94;;;11.98;89.86
47524;BME280;33253;42.144;25.884;2023-11-21T10:17:04;100238.84;;;12.02;88.63
47524;BME280;33253;42.144;25.884;2023-11-21T10:19:35;100232.25;;;12.13;88.96
47524;BME280;33253;42.144;25.884;2023-11-21T10:22:02;100161.41;;;11.77;89.32
47524;BME280;33253;42.144;25.884;2023-11-21T10:24:28;100224.84;;;12.27;90.64
47524;BME280;33253;42.144;25.884;2023-11-21T10:26:54;100219.81;;;12.32;89.87
47524;BME280;33253;42.144;25.884;2023-11-21T10:29:19;100203.47;;;12.34;90.36
47524;BME280;33253;42.144;25.884;2023-11-21T10:31:49;100207.88;;;12.38;89.92
47524;BME280;33253;42.144;25.884;2023-11-21T10:34:17;100142.50;;;12.12;89.94
47524;BME280;33253;42.144;25.884;2023-11-21T10:36:43;100201.34;;;12.53;90.33
47524;BME280;33253;42.144;25.884;2023-11-21T10:39:12;100188.38;;;12.51;90.24
47524;BME280;33253;42.144;25.884;2023-11-21T10:41:38;100201.81;;;12.73;90.55
47524;BME280;33253;42.144;25.884;2023-11-21T10:44:05;100073.25;;;12.00;90.66
47524;BME280;33253;42.144;25.884;2023-11-21T10:46:32;100200.22;;;12.78;89.83
47524;BME280;33253;42.144;25.884;2023-11-21T10:48:59;100198.69;;;12.86;89.68
47524;BME280;33253;42.144;25.884;2023-11-21T10:51:25;100199.56;;;12.87;89.75
47524;BME280;33253;42.144;25.884;2023-11-21T10:53:54;100187.41;;;12.84;89.12
47524;BME280;33253;42.144;25.884;2023-11-21T10:56:23;100193.78;;;12.99;89.66
47524;BME280;33253;42.144;25.884;2023-11-21T10:58:49;100177.66;;;13.12;91.40
47524;BME280;33253;42.144;25.884;2023-11-21T11:01:19;100175.41;;;13.27;90.29
47524;BME280;33253;42.144;25.884;2023-11-21T11:03:51;100163.59;;;13.40;89.81
47524;BME280;33253;42.144;25.884;2023-11-21T11:06:20;100170.06;;;13.61;89.38
47524;BME280;33253;42.144;25.884;2023-11-21T11:08:47;100119.69;;;13.50;88.13
47524;BME280;33253;42.144;25.884;2023-11-21T11:11:14;100154.84;;;13.80;88.03
47524;BME280;33253;42.144;25.884;2023-11-21T11:13:43;100155.81;;;13.85;88.62
47524;BME280;33253;42.144;25.884;2023-11-21T11:16:11;100133.25;;;13.81;88.57
47524;BME280;33253;42.144;25.884;2023-11-21T11:18:37;100140.47;;;13.99;88.02
47524;BME280;33253;42.144;25.884;2023-11-21T11:36:48;100120.53;;;14.50;88.95
47524;BME280;33253;42.144;25.884;2023-11-21T11:39:40;100124.84;;;14.48;89.64
47524;BME280;33253;42.144;25.884;2023-11-21T11:42:29;100098.00;;;14.49;90.30
47524;BME280;33253;42.144;25.884;2023-11-21T11:44:56;100100.06;;;14.68;90.63
47524;BME280;33253;42.144;25.884;2023-11-21T11:47:26;100116.78;;;14.89;91.10
47524;BME280;33253;42.144;25.884;2023-11-21T11:50:10;100096.97;;;14.94;90.87
47524;BME280;33253;42.144;25.884;2023-11-21T11:53:13;100094.53;;;15.10;89.40
47524;BME280;33253;42.144;25.884;2023-11-21T11:55:39;100083.28;;;15.11;89.62
47524;BME280;33253;42.144;25.884;2023-11-21T11:58:07;100090.28;;;15.16;89.06
47524;BME280;33253;42.144;25.884;2023-11-21T12:00:34;100017.00;;;14.75;89.25
47524;BME280;33253;42.144;25.884;2023-11-21T12:03:03;100079.03;;;15.16;89.96
47524;BME280;33253;42.144;25.884;2023-11-21T12:05:33;100076.47;;;15.19;89.76
47524;BME280;33253;42.144;25.884;2023-11-21T12:08:05;100081.69;;;15.19;89.48
47524;BME280;33253;42.144;25.884;2023-11-21T12:10:35;100058.31;;;15.25;89.84
47524;BME280;33253;42.144;25.884;2023-11-21T12:13:05;100058.34;;;15.27;90.77
47524;BME280;33253;42.144;25.884;2023-11-21T12:15:34;100049.66;;;15.26;90.00
47524;BME280;33253;42.144;25.884;2023-11-21T12:18:00;100058.34;;;15.28;89.88
47524;BME280;33253;42.144;25.884;2023-11-21T12:20:26;100050.50;;;15.24;90.27
47524;BME280;33253;42.144;25.884;2023-11-21T12:22:56;100058.34;;;15.28;90.54
47524;BME280;33253;42.144;25.884;2023-11-21T12:25:25;100032.28;;;15.19;90.78
47524;BME280;33253;42.144;25.884;2023-11-21T12:27:55;100048.75;;;15.23;91.27
47524;BME280;33253;42.144;25.884;2023-11-21T12:30:23;99903.94;;;14.37;90.89
47524;BME280;33253;42.144;25.884;2023-11-21T12:32:52;100031.31;;;15.12;93.03
47524;BME280;33253;42.144;25.884;2023-11-21T12:35:18;100019.94;;;15.02;93.72
47524;BME280;33253;42.144;25.884;2023-11-21T12:37:45;99952.56;;;14.49;94.73
47524;BME280;33253;42.144;25.884;2023-11-21T12:40:13;99951.63;;;14.44;96.16
47524;BME280;33253;42.144;25.884;2023-11-21T12:42:48;100017.00;;;14.76;96.71
47524;BME280;33253;42.144;25.884;2023-11-21T12:48:01;100009.88;;;14.61;98.97
47524;BME280;33253;42.144;25.884;2023-11-21T12:50:30;99934.69;;;14.04;100.00
47524;BME280;33253;42.144;25.884;2023-11-21T12:53:00;100014.88;;;14.46;100.00
47524;BME280;33253;42.144;25.884;2023-11-21T12:55:30;100020.03;;;14.44;100.00
47524;BME280;33253;42.144;25.884;2023-11-21T12:57:56;100022.53;;;14.38;100.00